sensor_id;sensor_type;location;lat;lon;timestamp;pressure;altitude;pressure_sealevel;temperature;humidity
21574;BME280;10948;48.706;9.258;2023-02-26T00:01:01;97258.53;;;1.47;100.00
21574;BME280;10948;48.706;9.258;2023-02-26T00:03:27;97260.69;;;1.33;100.00
21574;BME280;10948;48.706;9.258;2023-02-26T00:05:53;97263.44;;;1.53;100.00
21574;BME280;10948;48.706;9.258;2023-02-26T00:08:18;97270.25;;;1.54;100.00
21574;BME280;10948;48.706;9.258;2023-02-26T00:10:43;97272.63;;;1.34;100.00
21574;BME280;10948;48.706;9.258;2023-02-26T00:13:09;97276.53;;;1.18;100.00
21574;BME280;10948;48.706;9.258;2023-02-26T00:15:34;97273.25;;;1.13;100.00
21574;BME280;10948;48.706;9.258;2023-02-26T00:18:03;97275.16;;;1.08;100.00
21574;BME280;10948;48.706;9.258;2023-02-26T00:20:30;97273.19;;;1.16;100.00
21574;BME280;10948;48.706;9.258;2023-02-26T00:22:55;97277.00;;;1.03;100.00
21574;BME280;10948;48.706;9.258;2023-02-26T00:25:20;97272.41;;;1.14;100.00
21574;BME280;10948;48.706;9.258;2023-02-26T00:27:46;97275.22;;;1.05;100.00
21574;BME280;10948;48.706;9.258;2023-02-26T00:30:11;97280.16;;;1.11;100.00
21574;BME280;10948;48.706;9.258;2023-02-26T00:32:36;97279.16;;;1.16;100.00
21574;BME280;10948;48.706;9.258;2023-02-26T00:35:03;97280.38;;;1.31;100.00
21574;BME280;10948;48.706;9.258;2023-02-26T00:42:22;97284.50;;;1.09;100.00
21574;BME280;10948;48.706;9.258;2023-02-26T00:44:47;97281.88;;;1.38;100.00
21574;BME280;10948;48.706;9.258;2023-02-26T00:49:45;97291.44;;;1.33;100.00
21574;BME280;10948;48.706;9.258;2023-02-26T00:52:12;97290.22;;;1.17;100.00
21574;BME280;10948;48.706;9.258;2023-02-26T00:54:39;97289.66;;;1.07;100.00
21574;BME280;10948;48.706;9.258;2023-02-26T00:57:04;97284.78;;;1.27;100.00
21574;BME280;10948;48.706;9.258;2023-02-26T00:59:30;97277.53;;;1.14;100.00
21574;BME280;10948;48.706;9.258;2023-02-26T01:01:56;97282.66;;;1.14;100.00
21574;BME280;10948;48.706;9.258;2023-02-26T01:04:22;97281.94;;;1.09;100.00
21574;BME280;10948;48.706;9.258;2023-02-26T01:06:52;97281.94;;;1.09;100.00
21574;BME280;10948;48.706;9.258;2023-02-26T01:11:50;97283.44;;;1.16;100.00
21574;BME280;10948;48.706;9.258;2023-02-26T01:14:15;97284.13;;;0.93;100.00
21574;BME280;10948;48.706;9.258;2023-02-26T01:16:49;97283.06;;;1.00;100.00
21574;BME280;10948;48.706;9.258;2023-02-26T01:24:38;97286.31;;;1.05;100.00
21574;BME280;10948;48.706;9.258;2023-02-26T01:27:04;97279.78;;;0.95;100.00
21574;BME280;10948;48.706;9.258;2023-02-26T01:29:30;97282.84;;;0.79;100.00
21574;BME280;10948;48.706;9.258;2023-02-26T01:32:42;97280.47;;;1.02;100.00
21574;BME280;10948;48.706;9.258;2023-02-26T01:34:51;97276.31;;;0.98;100.00
21574;BME280;10948;48.706;9.258;2023-02-26T01:37:30;97270.41;;;0.96;100.00
21574;BME280;10948;48.706;9.258;2023-02-26T01:42:42;97276.38;;;0.96;100.00
21574;BME280;10948;48.706;9.258;2023-02-26T01:50:20;97281.81;;;0.57;100.00
21574;BME280;10948;48.706;9.258;2023-02-26T01:55:11;97289.75;;;0.77;100.00
21574;BME280;10948;48.706;9.258;2023-02-26T01:57:36;97287.72;;;0.59;100.00
21574;BME280;10948;48.706;9.258;2023-02-26T02:00:02;97290.38;;;0.56;100.00
21574;BME280;10948;48.706;9.258;2023-02-26T02:02:28;97296.34;;;0.26;100.00
21574;BME280;10948;48.706;9.258;2023-02-26T02:04:54;97292.22;;;0.51;100.00
21574;BME280;10948;48.706;9.258;2023-02-26T02:07:19;97297.44;;;0.48;100.00
21574;BME280;10948;48.706;9.258;2023-02-26T02:09:45;97298.84;;;0.58;100.00
21574;BME280;10948;48.706;9.258;2023-02-26T02:15:44;97298.59;;;0.36;100.00
21574;BME280;10948;48.706;9.258;2023-02-26T02:28:02;97315.31;;;-0.13;100.00
21574;BME280;10948;48.706;9.258;2023-02-26T02:30:37;97311.41;;;-0.26;100.00
21574;BME280;10948;48.706;9.258;2023-02-26T02:33:11;97312.59;;;-0.40;100.00
21574;BME280;10948;48.706;9.258;2023-02-26T02:35:43;97321.44;;;-0.20;100.00
21574;BME280;10948;48.706;9.258;2023-02-26T02:40:36;97313.38;;;-0.37;100.00
21574;BME280;10948;48.706;9.258;2023-02-26T02:43:09;97322.75;;;-0.37;100.00
21574;BME280;10948;48.706;9.258;2023-02-26T02:45:37;97316.72;;;-0.02;100.00
21574;BME280;10948;48.706;9.258;2023-02-26T02:48:07;97318.22;;;-0.26;100.00
21574;BME280;10948;48.706;9.258;2023-02-26T02:50:36;97327.97;;;-0.42;100.00
21574;BME280;10948;48.706;9.258;2023-02-26T02:53:24;97329.34;;;-0.29;100.00
21574;BME280;10948;48.706;9.258;2023-02-26T02:55:56;97332.50;;;-0.53;100.00
21574;BME280;10948;48.706;9.258;2023-02-26T02:58:27;97335.00;;;-0.51;100.00
21574;BME280;10948;48.706;9.258;2023-02-26T03:00:55;97323.81;;;-0.46;100.00
21574;BME280;10948;48.706;9.258;2023-02-26T03:05:56;97334.19;;;-0.52;100.00
21574;BME280;10948;48.706;9.258;2023-02-26T03:08:22;97332.50;;;-0.53;100.00
21574;BME280;10948;48.706;9.258;2023-02-26T03:10:48;97336.91;;;-0.59;100.00
21574;BME280;10948;48.706;9.258;2023-02-26T03:13:14;97345.72;;;-0.71;100.00
21574;BME280;10948;48.706;9.258;2023-02-26T03:20:55;97347.97;;;-0.59;100.00
21574;BME280;10948;48.706;9.258;2023-02-26T03:23:33;97350.94;;;-0.77;100.00
21574;BME280;10948;48.706;9.258;2023-02-26T03:26:07;97348.66;;;-0.89;100.00
21574;BME280;10948;48.706;9.258;2023-02-26T03:33:37;97362.69;;;-0.68;100.00
21574;BME280;10948;48.706;9.258;2023-02-26T03:36:07;97358.97;;;-0.92;100.00
21574;BME280;10948;48.706;9.258;2023-02-26T03:41:19;97357.41;;;-0.99;100.00
21574;BME280;10948;48.706;9.258;2023-02-26T03:46:16;97364.00;;;-0.90;100.00
21574;BME280;10948;48.706;9.258;2023-02-26T03:48:43;97365.47;;;-0.79;100.00
21574;BME280;10948;48.706;9.258;2023-02-26T03:51:09;97358.03;;;-1.29;100.00
21574;BME280;10948;48.706;9.258;2023-02-26T03:53:38;97362.22;;;-1.25;100.00
21574;BME280;10948;48.706;9.258;2023-02-26T03:58:32;97359.00;;;-1.34;100.00
21574;BME280;10948;48.706;9.258;2023-02-26T04:00:59;97362.69;;;-1.47;100.00
21574;BME280;10948;48.706;9.258;2023-02-26T04:03:27;97367.31;;;-1.25;100.00
21574;BME280;10948;48.706;9.258;2023-02-26T04:05:54;97367.00;;;-1.51;100.00
21574;BME280;10948;48.706;9.258;2023-02-26T04:08:20;97373.34;;;-1.29;100.00
21574;BME280;10948;48.706;9.258;2023-02-26T04:13:11;97379.09;;;-1.62;100.00
21574;BME280;10948;48.706;9.258;2023-02-26T04:15:36;97389.25;;;-1.16;100.00
21574;BME280;10948;48.706;9.258;2023-02-26T04:18:01;97382.78;;;-1.32;100.00
21574;BME280;10948;48.706;9.258;2023-02-26T04:20:26;97385.47;;;-1.40;100.00
21574;BME280;10948;48.706;9.258;2023-02-26T04:22:51;97390.09;;;-1.58;100.00
21574;BME280;10948;48.706;9.258;2023-02-26T04:25:17;97388.34;;;-1.56;100.00
21574;BME280;10948;48.706;9.258;2023-02-26T04:27:42;97392.72;;;-1.63;100.00
21574;BME280;10948;48.706;9.258;2023-02-26T04:30:07;97386.63;;;-1.54;100.00
21574;BME280;10948;48.706;9.258;2023-02-26T04:32:33;97383.91;;;-1.47;100.00
21574;BME280;10948;48.706;9.258;2023-02-26T04:34:58;97393.53;;;-1.61;100.00
21574;BME280;10948;48.706;9.258;2023-02-26T04:37:23;97392.63;;;-1.57;100.00
21574;BME280;10948;48.706;9.258;2023-02-26T04:39:49;97391.34;;;-1.36;100.00
21574;BME280;10948;48.706;9.258;2023-02-26T04:42:14;97394.00;;;-1.41;100.00
21574;BME280;10948;48.706;9.258;2023-02-26T04:44:39;97399.50;;;-1.62;100.00
21574;BME280;10948;48.706;9.258;2023-02-26T04:47:04;97400.38;;;-1.61;100.00
21574;BME280;10948;48.706;9.258;2023-02-26T04:49:30;97404.78;;;-1.71;100.00
21574;BME280;10948;48.706;9.258;2023-02-26T04:51:55;97402.94;;;-1.63;100.00
21574;BME280;10948;48.706;9.258;2023-02-26T04:54:20;97410.41;;;-1.54;100.00
21574;BME280;10948;48.706;9.258;2023-02-26T04:56:46;97406.47;;;-1.70;100.00
21574;BME280;10948;48.706;9.258;2023-02-26T04:59:11;97407.03;;;-1.56;100.00
21574;BME280;10948;48.706;9.258;2023-02-26T05:01:36;97409.25;;;-1.38;100.00
21574;BME280;10948;48.706;9.258;2023-02-26T05:04:01;97411.94;;;-1.44;100.00
21574;BME280;10948;48.706;9.258;2023-02-26T05:06:26;97413.25;;;-1.69;100.00
21574;BME280;10948;48.706;9.258;2023-02-26T05:08:52;97414.81;;;-1.62;100.00
21574;BME280;10948;48.706;9.258;2023-02-26T05:11:17;97413.59;;;-1.43;100.00
21574;BME280;10948;48.706;9.258;2023-02-26T05:13:42;97418.31;;;-1.66;100.00
21574;BME280;10948;48.706;9.258;2023-02-26T05:16:08;97416.66;;;-1.70;100.00
21574;BME280;10948;48.706;9.258;2023-02-26T05:18:33;97419.09;;;-1.62;100.00
21574;BME280;10948;48.706;9.258;2023-02-26T05:20:58;97430.22;;;-1.68;100.00
21574;BME280;10948;48.706;9.258;2023-02-26T05:23:23;97431.66;;;-2.02;100.00
21574;BME280;10948;48.706;9.258;2023-02-26T05:25:49;97432.34;;;-1.91;100.00
21574;BME280;10948;48.706;9.258;2023-02-26T05:28:14;97436.50;;;-1.40;100.00
21574;BME280;10948;48.706;9.258;2023-02-26T05:30:40;97430.09;;;-1.62;100.00
21574;BME280;10948;48.706;9.258;2023-02-26T05:33:05;97442.63;;;-1.97;100.00
21574;BME280;10948;48.706;9.258;2023-02-26T05:35:30;97448.19;;;-2.25;100.00
21574;BME280;10948;48.706;9.258;2023-02-26T05:37:55;97453.16;;;-2.18;100.00
21574;BME280;10948;48.706;9.258;2023-02-26T05:40:21;97454.84;;;-2.17;100.00
21574;BME280;10948;48.706;9.258;2023-02-26T05:42:47;97455.81;;;-2.25;100.00
21574;BME280;10948;48.706;9.258;2023-02-26T05:45:12;97466.06;;;-2.28;100.00
21574;BME280;10948;48.706;9.258;2023-02-26T05:47:38;97458.72;;;-1.93;100.00
21574;BME280;10948;48.706;9.258;2023-02-26T05:50:04;97465.88;;;-1.65;100.00
21574;BME280;10948;48.706;9.258;2023-02-26T05:52:29;97469.22;;;-1.63;100.00
21574;BME280;10948;48.706;9.258;2023-02-26T05:54:54;97467.03;;;-1.82;100.00
21574;BME280;10948;48.706;9.258;2023-02-26T05:57:20;97466.91;;;-2.28;100.00
21574;BME280;10948;48.706;9.258;2023-02-26T05:59:45;97484.81;;;-2.34;100.00
21574;BME280;10948;48.706;9.258;2023-02-26T06:02:10;97480.19;;;-2.08;100.00
21574;BME280;10948;48.706;9.258;2023-02-26T06:04:35;97487.69;;;-1.99;100.00
21574;BME280;10948;48.706;9.258;2023-02-26T06:07:01;97484.56;;;-2.17;100.00
21574;BME280;10948;48.706;9.258;2023-02-26T06:09:26;97485.94;;;-2.53;100.00
21574;BME280;10948;48.706;9.258;2023-02-26T06:11:51;97490.75;;;-2.32;100.00
21574;BME280;10948;48.706;9.258;2023-02-26T06:14:17;97499.22;;;-2.30;100.00
21574;BME280;10948;48.706;9.258;2023-02-26T06:16:42;97492.00;;;-2.02;100.00
21574;BME280;10948;48.706;9.258;2023-02-26T06:19:07;97493.94;;;-2.18;100.00
21574;BME280;10948;48.706;9.258;2023-02-26T06:21:32;97497.78;;;-1.93;100.00
21574;BME280;10948;48.706;9.258;2023-02-26T06:23:57;97504.03;;;-2.12;100.00
21574;BME280;10948;48.706;9.258;2023-02-26T06:26:23;97504.84;;;-2.08;100.00
21574;BME280;10948;48.706;9.258;2023-02-26T06:28:48;97515.94;;;-2.14;100.00
21574;BME280;10948;48.706;9.258;2023-02-26T06:31:13;97514.72;;;-1.89;100.00
21574;BME280;10948;48.706;9.258;2023-02-26T06:33:38;97530.31;;;-2.08;100.00
21574;BME280;10948;48.706;9.258;2023-02-26T06:36:04;97526.69;;;-1.94;100.00
21574;BME280;10948;48.706;9.258;2023-02-26T06:38:29;97540.25;;;-1.92;100.00
21574;BME280;10948;48.706;9.258;2023-02-26T06:40:54;97541.78;;;-1.82;100.00
21574;BME280;10948;48.706;9.258;2023-02-26T06:43:20;97542.03;;;-1.98;100.00
21574;BME280;10948;48.706;9.258;2023-02-26T06:45:45;97539.38;;;-1.89;100.00
21574;BME280;10948;48.706;9.258;2023-02-26T06:48:10;97550.84;;;-1.63;100.00
21574;BME280;10948;48.706;9.258;2023-02-26T06:50:35;97551.56;;;-1.55;100.00
21574;BME280;10948;48.706;9.258;2023-02-26T06:53:01;97559.78;;;-1.39;100.00
21574;BME280;10948;48.706;9.258;2023-02-26T06:55:26;97558.94;;;-1.40;100.00
21574;BME280;10948;48.706;9.258;2023-02-26T06:57:52;97561.88;;;-1.14;100.00
21574;BME280;10948;48.706;9.258;2023-02-26T07:00:17;97561.00;;;-1.11;100.00
21574;BME280;10948;48.706;9.258;2023-02-26T07:02:43;97569.22;;;-0.94;100.00
21574;BME280;10948;48.706;9.258;2023-02-26T07:05:08;97564.78;;;-0.85;100.00
21574;BME280;10948;48.706;9.258;2023-02-26T07:07:33;97567.09;;;-0.73;100.00
21574;BME280;10948;48.706;9.258;2023-02-26T07:09:59;97571.78;;;-0.52;100.00
21574;BME280;10948;48.706;9.258;2023-02-26T07:12:24;97571.25;;;-0.28;100.00
21574;BME280;10948;48.706;9.258;2023-02-26T07:14:49;97576.13;;;-0.16;100.00
21574;BME280;10948;48.706;9.258;2023-02-26T07:17:14;97574.72;;;0.09;100.00
21574;BME280;10948;48.706;9.258;2023-02-26T07:19:45;97572.69;;;0.23;100.00
21574;BME280;10948;48.706;9.258;2023-02-26T07:22:10;97572.09;;;0.83;100.00
21574;BME280;10948;48.706;9.258;2023-02-26T07:24:35;97568.69;;;1.15;100.00
21574;BME280;10948;48.706;9.258;2023-02-26T07:27:00;97568.31;;;1.88;100.00
21574;BME280;10948;48.706;9.258;2023-02-26T07:29:25;97557.72;;;1.69;100.00
21574;BME280;10948;48.706;9.258;2023-02-26T07:31:51;97560.44;;;1.04;100.00
21574;BME280;10948;48.706;9.258;2023-02-26T07:34:16;97572.31;;;0.73;100.00
21574;BME280;10948;48.706;9.258;2023-02-26T07:36:41;97573.59;;;0.57;100.00
21574;BME280;10948;48.706;9.258;2023-02-26T07:39:06;97574.34;;;0.25;100.00
21574;BME280;10948;48.706;9.258;2023-02-26T07:41:32;97579.28;;;0.68;100.00
21574;BME280;10948;48.706;9.258;2023-02-26T07:43:57;97578.06;;;0.49;100.00
21574;BME280;10948;48.706;9.258;2023-02-26T07:46:23;97589.84;;;0.54;100.00
21574;BME280;10948;48.706;9.258;2023-02-26T07:48:48;97589.03;;;0.54;100.00
21574;BME280;10948;48.706;9.258;2023-02-26T07:51:13;97594.97;;;0.54;100.00
21574;BME280;10948;48.706;9.258;2023-02-26T07:53:38;97590.31;;;0.70;100.00
21574;BME280;10948;48.706;9.258;2023-02-26T07:56:04;97587.91;;;0.29;100.00
21574;BME280;10948;48.706;9.258;2023-02-26T07:58:29;97593.63;;;0.40;100.00
21574;BME280;10948;48.706;9.258;2023-02-26T08:00:55;97590.59;;;0.93;100.00
21574;BME280;10948;48.706;9.258;2023-02-26T08:03:20;97598.38;;;0.90;100.00
21574;BME280;10948;48.706;9.258;2023-02-26T08:05:45;97597.19;;;1.03;100.00
21574;BME280;10948;48.706;9.258;2023-02-26T08:08:10;97599.13;;;1.57;100.00
21574;BME280;10948;48.706;9.258;2023-02-26T08:10:36;97595.53;;;3.74;97.41
21574;BME280;10948;48.706;9.258;2023-02-26T08:13:01;97591.50;;;4.99;85.61
21574;BME280;10948;48.706;9.258;2023-02-26T08:15:26;97585.97;;;5.47;80.17
21574;BME280;10948;48.706;9.258;2023-02-26T08:17:52;97594.19;;;6.51;77.16
21574;BME280;10948;48.706;9.258;2023-02-26T08:20:17;97578.22;;;10.19;64.23
21574;BME280;10948;48.706;9.258;2023-02-26T08:22:46;97584.19;;;10.88;56.37
21574;BME280;10948;48.706;9.258;2023-02-26T08:25:12;97585.25;;;8.87;56.33
21574;BME280;10948;48.706;9.258;2023-02-26T08:27:37;97579.59;;;12.32;52.34
21574;BME280;10948;48.706;9.258;2023-02-26T08:30:03;97580.47;;;11.95;50.82
21574;BME280;10948;48.706;9.258;2023-02-26T08:32:28;97592.44;;;8.68;50.64
21574;BME280;10948;48.706;9.258;2023-02-26T08:34:54;97600.78;;;5.03;61.25
21574;BME280;10948;48.706;9.258;2023-02-26T08:37:19;97600.34;;;3.35;72.39
21574;BME280;10948;48.706;9.258;2023-02-26T08:39:47;97606.75;;;2.72;80.23
21574;BME280;10948;48.706;9.258;2023-02-26T08:42:12;97605.06;;;2.45;83.76
21574;BME280;10948;48.706;9.258;2023-02-26T08:44:40;97619.44;;;1.94;89.33
21574;BME280;10948;48.706;9.258;2023-02-26T08:47:05;97616.81;;;1.95;91.10
21574;BME280;10948;48.706;9.258;2023-02-26T08:49:31;97630.06;;;1.82;93.35
21574;BME280;10948;48.706;9.258;2023-02-26T08:51:56;97631.13;;;2.04;94.21
21574;BME280;10948;48.706;9.258;2023-02-26T08:54:21;97630.38;;;1.70;94.40
21574;BME280;10948;48.706;9.258;2023-02-26T08:56:46;97632.00;;;1.43;96.54
21574;BME280;10948;48.706;9.258;2023-02-26T08:59:12;97634.72;;;1.68;97.89
21574;BME280;10948;48.706;9.258;2023-02-26T09:01:37;97633.38;;;1.55;99.23
21574;BME280;10948;48.706;9.258;2023-02-26T09:04:02;97628.25;;;1.55;99.38
21574;BME280;10948;48.706;9.258;2023-02-26T09:06:28;97640.97;;;0.94;100.00
21574;BME280;10948;48.706;9.258;2023-02-26T09:08:53;97637.47;;;1.30;100.00
21574;BME280;10948;48.706;9.258;2023-02-26T09:11:18;97632.91;;;1.41;100.00
21574;BME280;10948;48.706;9.258;2023-02-26T09:13:44;97631.03;;;1.46;100.00
21574;BME280;10948;48.706;9.258;2023-02-26T09:16:10;97637.63;;;1.56;99.92
21574;BME280;10948;48.706;9.258;2023-02-26T09:18:36;97633.50;;;1.50;100.00
21574;BME280;10948;48.706;9.258;2023-02-26T09:21:01;97646.34;;;1.49;100.00
21574;BME280;10948;48.706;9.258;2023-02-26T09:23:27;97648.75;;;1.23;100.00
21574;BME280;10948;48.706;9.258;2023-02-26T09:25:52;97655.94;;;1.09;100.00
21574;BME280;10948;48.706;9.258;2023-02-26T09:28:18;97660.81;;;1.18;100.00
21574;BME280;10948;48.706;9.258;2023-02-26T09:30:44;97656.00;;;1.06;100.00
21574;BME280;10948;48.706;9.258;2023-02-26T09:33:09;97665.88;;;1.21;100.00
21574;BME280;10948;48.706;9.258;2023-02-26T09:35:34;97663.97;;;1.29;100.00
21574;BME280;10948;48.706;9.258;2023-02-26T09:37:59;97669.09;;;1.29;100.00
21574;BME280;10948;48.706;9.258;2023-02-26T09:42:57;97678.59;;;1.24;100.00
21574;BME280;10948;48.706;9.258;2023-02-26T09:45:25;97676.78;;;1.29;100.00
21574;BME280;10948;48.706;9.258;2023-02-26T09:47:52;97675.19;;;1.57;100.00
21574;BME280;10948;48.706;9.258;2023-02-26T09:50:22;97683.09;;;1.16;100.00
21574;BME280;10948;48.706;9.258;2023-02-26T10:00:44;97681.53;;;1.42;100.00
21574;BME280;10948;48.706;9.258;2023-02-26T10:09:00;97687.53;;;1.43;100.00
21574;BME280;10948;48.706;9.258;2023-02-26T10:11:35;97692.41;;;1.52;100.00
21574;BME280;10948;48.706;9.258;2023-02-26T10:14:11;97695.69;;;1.57;100.00
21574;BME280;10948;48.706;9.258;2023-02-26T10:16:40;97696.41;;;1.30;100.00
21574;BME280;10948;48.706;9.258;2023-02-26T10:19:07;97693.59;;;1.39;100.00
21574;BME280;10948;48.706;9.258;2023-02-26T10:21:41;97704.22;;;1.24;100.00
21574;BME280;10948;48.706;9.258;2023-02-26T10:24:31;97692.72;;;1.06;100.00
21574;BME280;10948;48.706;9.258;2023-02-26T10:26:59;97696.69;;;1.18;100.00
21574;BME280;10948;48.706;9.258;2023-02-26T10:36:48;97709.06;;;1.36;100.00
21574;BME280;10948;48.706;9.258;2023-02-26T10:39:24;97704.38;;;1.53;100.00
21574;BME280;10948;48.706;9.258;2023-02-26T10:41:51;97703.75;;;1.43;99.49
21574;BME280;10948;48.706;9.258;2023-02-26T10:44:41;97708.28;;;1.34;100.00
21574;BME280;10948;48.706;9.258;2023-02-26T10:47:12;97699.59;;;1.38;100.00
21574;BME280;10948;48.706;9.258;2023-02-26T10:49:48;97706.69;;;1.62;98.91
21574;BME280;10948;48.706;9.258;2023-02-26T10:52:21;97712.38;;;1.73;99.28
21574;BME280;10948;48.706;9.258;2023-02-26T10:54:52;97702.75;;;1.49;100.00
21574;BME280;10948;48.706;9.258;2023-02-26T10:57:22;97711.63;;;1.36;97.09
21574;BME280;10948;48.706;9.258;2023-02-26T10:59:48;97702.44;;;1.61;95.06
21574;BME280;10948;48.706;9.258;2023-02-26T11:04:50;97712.72;;;2.22;93.64
21574;BME280;10948;48.706;9.258;2023-02-26T11:07:16;97704.81;;;1.99;93.78
21574;BME280;10948;48.706;9.258;2023-02-26T11:09:42;97706.50;;;2.00;93.21
21574;BME280;10948;48.706;9.258;2023-02-26T11:12:12;97703.53;;;1.83;92.18
21574;BME280;10948;48.706;9.258;2023-02-26T11:14:38;97699.34;;;2.11;92.04
21574;BME280;10948;48.706;9.258;2023-02-26T11:17:12;97698.16;;;2.51;90.22
21574;BME280;10948;48.706;9.258;2023-02-26T11:19:40;97706.69;;;2.52;89.99
21574;BME280;10948;48.706;9.258;2023-02-26T11:22:06;97707.69;;;2.48;90.28
21574;BME280;10948;48.706;9.258;2023-02-26T11:24:42;97712.63;;;2.54;91.10
21574;BME280;10948;48.706;9.258;2023-02-26T11:27:15;97711.16;;;1.86;90.82
21574;BME280;10948;48.706;9.258;2023-02-26T11:29:44;97704.63;;;2.05;91.47
21574;BME280;10948;48.706;9.258;2023-02-26T11:32:29;97712.88;;;2.16;92.52
21574;BME280;10948;48.706;9.258;2023-02-26T11:34:54;97714.84;;;2.08;92.96
21574;BME280;10948;48.706;9.258;2023-02-26T11:37:21;97712.78;;;1.88;92.25
21574;BME280;10948;48.706;9.258;2023-02-26T11:39:55;97717.72;;;1.96;92.01
21574;BME280;10948;48.706;9.258;2023-02-26T11:42:20;97711.72;;;1.97;92.46
21574;BME280;10948;48.706;9.258;2023-02-26T11:44:45;97710.50;;;2.39;91.71
21574;BME280;10948;48.706;9.258;2023-02-26T11:47:15;97707.72;;;2.46;90.10
21574;BME280;10948;48.706;9.258;2023-02-26T11:49:44;97702.59;;;2.46;88.12
21574;BME280;10948;48.706;9.258;2023-02-26T11:54:37;97701.72;;;2.46;89.58
21574;BME280;10948;48.706;9.258;2023-02-26T11:57:05;97707.59;;;2.22;89.68
21574;BME280;10948;48.706;9.258;2023-02-26T11:59:32;97706.25;;;2.09;91.08
21574;BME280;10948;48.706;9.258;2023-02-26T12:02:02;97698.66;;;2.35;90.87
21574;BME280;10948;48.706;9.258;2023-02-26T12:04:34;97709.38;;;2.20;90.66
21574;BME280;10948;48.706;9.258;2023-02-26T12:06:59;97706.97;;;2.14;91.38
21574;BME280;10948;48.706;9.258;2023-02-26T12:09:24;97708.94;;;2.04;90.67
21574;BME280;10948;48.706;9.258;2023-02-26T12:19:56;97716.09;;;1.93;93.23
21574;BME280;10948;48.706;9.258;2023-02-26T12:22:33;97723.06;;;2.19;92.98
21574;BME280;10948;48.706;9.258;2023-02-26T12:25:15;97721.53;;;2.12;91.69
21574;BME280;10948;48.706;9.258;2023-02-26T12:30:25;97725.44;;;2.25;88.46
21574;BME280;10948;48.706;9.258;2023-02-26T12:33:37;97718.38;;;2.02;87.30
21574;BME280;10948;48.706;9.258;2023-02-26T12:56:02;97719.19;;;2.35;88.47
21574;BME280;10948;48.706;9.258;2023-02-26T13:01:07;97718.75;;;2.21;89.24
21574;BME280;10948;48.706;9.258;2023-02-26T13:06:20;97732.81;;;2.37;88.18
21574;BME280;10948;48.706;9.258;2023-02-26T13:08:56;97730.06;;;2.14;87.53
21574;BME280;10948;48.706;9.258;2023-02-26T13:12:11;97733.97;;;2.27;87.37
21574;BME280;10948;48.706;9.258;2023-02-26T13:14:32;97727.44;;;2.15;87.11
21574;BME280;10948;48.706;9.258;2023-02-26T13:17:16;97729.63;;;1.98;87.62
21574;BME280;10948;48.706;9.258;2023-02-26T13:19:54;97726.50;;;2.18;88.46
21574;BME280;10948;48.706;9.258;2023-02-26T13:22:26;97730.06;;;1.83;88.70
21574;BME280;10948;48.706;9.258;2023-02-26T13:24:59;97728.72;;;2.01;89.72
21574;BME280;10948;48.706;9.258;2023-02-26T13:27:26;97722.22;;;1.88;90.43
21574;BME280;10948;48.706;9.258;2023-02-26T13:29:59;97723.66;;;1.98;90.06
21574;BME280;10948;48.706;9.258;2023-02-26T13:32:27;97726.97;;;2.01;90.47
21574;BME280;10948;48.706;9.258;2023-02-26T13:35:00;97725.34;;;2.29;90.33
21574;BME280;10948;48.706;9.258;2023-02-26T13:37:36;97722.03;;;2.55;88.85
21574;BME280;10948;48.706;9.258;2023-02-26T13:42:47;97725.84;;;2.42;88.68
21574;BME280;10948;48.706;9.258;2023-02-26T13:48:08;97718.56;;;2.27;83.10
21574;BME280;10948;48.706;9.258;2023-02-26T13:50:42;97743.00;;;2.40;81.72
21574;BME280;10948;48.706;9.258;2023-02-26T13:55:48;97734.50;;;2.38;77.79
21574;BME280;10948;48.706;9.258;2023-02-26T14:00:52;97736.97;;;2.70;75.26
21574;BME280;10948;48.706;9.258;2023-02-26T14:05:54;97727.72;;;2.92;73.35
21574;BME280;10948;48.706;9.258;2023-02-26T14:11:03;97728.69;;;3.15;72.84
21574;BME280;10948;48.706;9.258;2023-02-26T14:13:32;97732.88;;;2.92;73.30
21574;BME280;10948;48.706;9.258;2023-02-26T14:15:59;97737.44;;;2.82;74.51
21574;BME280;10948;48.706;9.258;2023-02-26T14:18:35;97737.16;;;2.64;73.94
21574;BME280;10948;48.706;9.258;2023-02-26T14:21:26;97739.91;;;2.58;75.69
21574;BME280;10948;48.706;9.258;2023-02-26T14:23:56;97739.38;;;2.47;74.53
21574;BME280;10948;48.706;9.258;2023-02-26T14:26:23;97742.56;;;2.55;74.56
21574;BME280;10948;48.706;9.258;2023-02-26T14:31:45;97739.47;;;2.73;71.79
21574;BME280;10948;48.706;9.258;2023-02-26T14:34:14;97742.13;;;2.41;72.87
21574;BME280;10948;48.706;9.258;2023-02-26T14:36:48;97735.47;;;3.18;71.94
21574;BME280;10948;48.706;9.258;2023-02-26T14:41:51;97742.91;;;2.43;70.89
21574;BME280;10948;48.706;9.258;2023-02-26T14:44:21;97736.47;;;3.14;68.62
21574;BME280;10948;48.706;9.258;2023-02-26T14:46:47;97733.91;;;3.14;67.41
21574;BME280;10948;48.706;9.258;2023-02-26T14:49:32;97734.44;;;2.97;68.15
21574;BME280;10948;48.706;9.258;2023-02-26T14:57:10;97754.06;;;3.00;69.57
21574;BME280;10948;48.706;9.258;2023-02-26T15:02:22;97765.41;;;2.64;71.91
21574;BME280;10948;48.706;9.258;2023-02-26T15:10:07;97771.34;;;2.66;71.01
21574;BME280;10948;48.706;9.258;2023-02-26T15:17:51;97772.03;;;2.71;70.83
21574;BME280;10948;48.706;9.258;2023-02-26T15:25:31;97782.03;;;2.51;74.44
21574;BME280;10948;48.706;9.258;2023-02-26T15:27:58;97790.47;;;2.56;75.51
21574;BME280;10948;48.706;9.258;2023-02-26T15:30:24;97783.44;;;2.32;76.58
21574;BME280;10948;48.706;9.258;2023-02-26T15:32:54;97786.09;;;2.29;75.52
21574;BME280;10948;48.706;9.258;2023-02-26T15:35:20;97796.66;;;2.18;73.30
21574;BME280;10948;48.706;9.258;2023-02-26T15:37:47;97795.91;;;2.15;73.24
21574;BME280;10948;48.706;9.258;2023-02-26T15:40:13;97800.34;;;2.39;73.12
21574;BME280;10948;48.706;9.258;2023-02-26T15:42:39;97804.38;;;2.49;73.62
21574;BME280;10948;48.706;9.258;2023-02-26T15:45:08;97805.25;;;2.48;73.49
21574;BME280;10948;48.706;9.258;2023-02-26T15:47:36;97802.84;;;2.42;72.63
21574;BME280;10948;48.706;9.258;2023-02-26T15:50:01;97810.75;;;2.34;72.53
21574;BME280;10948;48.706;9.258;2023-02-26T15:52:26;97803.34;;;2.24;70.71
21574;BME280;10948;48.706;9.258;2023-02-26T15:54:56;97814.81;;;2.11;69.81
21574;BME280;10948;48.706;9.258;2023-02-26T15:57:22;97819.47;;;2.29;69.93